Time;durP1;ratioP1;P1;durP2;ratioP2;P2;SDS_P1;SDS_P2;PMS_P1;PMS_P2;Temp;Humidity;BMP_temperature;BMP_pressure;BME280_temperature;BME280_humidity;BME280_pressure;Samples;Min_cycle;Max_cycle;Signal;HPM_P1;HPM_P2
2022/08/20 00:02:00;;;;;;;8.58;7.78;;;;;;;18.99;100.00;100576.08;1686051;83;21177;-91
2022/08/20 00:04:29;;;;;;;9.10;7.62;;;;;;;18.95;100.00;100574.80;1692320;83;21135;-91
2022/08/20 00:06:59;;;;;;;7.85;7.05;;;;;;;18.90;100.00;100581.36;1677187;83;21098;-91
2022/08/20 00:09:26;;;;;;;8.08;7.20;;;;;;;18.88;100.00;100578.58;1676604;83;20988;-91
2022/08/20 00:11:57;;;;;;;8.93;7.28;;;;;;;18.85;100.00;100582.38;1671902;83;21516;-90
2022/08/20 00:14:26;;;;;;;8.20;7.47;;;;;;;18.82;100.00;100577.95;1675467;83;21004;-91
2022/08/20 00:16:55;;;;;;;7.75;7.12;;;;;;;18.79;100.00;100576.45;1678394;83;21857;-91
2022/08/20 00:19:22;;;;;;;9.18;8.03;;;;;;;18.75;100.00;100577.28;1682765;83;22044;-91
2022/08/20 00:21:50;;;;;;;9.35;8.23;;;;;;;18.71;100.00;100573.36;1684424;83;21034;-91
2022/08/20 00:24:17;;;;;;;10.23;8.90;;;;;;;18.67;100.00;100579.14;1683307;83;21568;-92
2022/08/20 00:26:44;;;;;;;9.88;8.85;;;;;;;18.61;100.00;100575.36;1676130;83;21062;-92
2022/08/20 00:29:15;;;;;;;8.98;8.18;;;;;;;18.56;100.00;100574.55;1681782;83;21178;-92
2022/08/20 00:31:43;;;;;;;9.70;8.80;;;;;;;18.50;100.00;100580.50;1679020;83;21513;-91
2022/08/20 00:34:11;;;;;;;11.45;9.13;;;;;;;18.46;100.00;100588.43;1681434;83;21018;-91
2022/08/20 00:36:51;;;;;;;;;;;;;;;;;;;;;
2022/08/20 00:39:12;;;;;;;11.05;9.28;;;;;;;18.36;100.00;100587.78;1683604;83;26999;-90
2022/08/20 00:41:40;;;;;;;10.35;9.18;;;;;;;18.36;100.00;100589.09;1672034;83;21234;-91
2022/08/20 00:44:18;;;;;;;10.48;8.63;;;;;;;18.33;100.00;100590.73;1681317;83;21038;-89
2022/08/20 00:46:46;;;;;;;10.63;8.88;;;;;;;18.33;100.00;100586.78;1687204;83;20995;-90
2022/08/20 00:49:21;;;;;;;11.35;9.35;;;;;;;18.37;100.00;100597.34;1680359;83;21608;-92
2022/08/20 00:52:00;;;;;;;9.90;8.83;;;;;;;18.36;100.00;100591.23;1664323;83;21015;-92
2022/08/20 00:54:41;;;;;;;11.10;9.05;;;;;;;18.36;100.00;100591.23;1677349;83;21434;-91
2022/08/20 00:57:42;;;;;;;11.00;8.75;;;;;;;18.35;100.00;100591.41;1673856;83;21687;-91
2022/08/20 01:00:16;;;;;;;9.65;8.68;;;;;;;18.32;100.00;100590.41;1678479;83;21536;-91
2022/08/20 01:02:49;;;;;;;11.15;9.20;;;;;;;18.30;100.00;100593.22;1675099;83;21603;-91
2022/08/20 01:05:22;;;;;;;10.80;9.40;;;;;;;18.33;100.00;100597.33;1685793;83;21010;-91
2022/08/20 01:07:56;;;;;;;13.93;10.35;;;;;;;18.32;100.00;100596.99;1665217;83;21205;-91
2022/08/20 01:10:28;;;;;;;;;;;;;;;18.28;100.00;100597.34;1673853;83;21524;-91
2022/08/20 01:12:58;;;;;;;10.00;9.10;;;;;;;18.27;100.00;100596.17;1682528;83;20149;-92
2022/08/20 01:15:30;;;;;;;12.70;9.30;;;;;;;18.25;100.00;100600.30;1689363;83;21576;-91
2022/08/20 01:18:03;;;;;;;10.05;9.15;;;;;;;18.24;100.00;100598.66;1691173;83;21050;-91
2022/08/20 01:20:39;;;;;;;11.57;10.38;;;;;;;18.25;100.00;100606.08;1684513;83;21180;-92
2022/08/20 01:23:58;;;;;;;13.13;10.50;;;;;;;18.22;100.00;100603.77;1689966;83;21002;-92
2022/08/20 01:26:42;;;;;;;10.85;9.85;;;;;;;18.18;100.00;100620.41;1683346;83;21582;-92
2022/08/20 01:29:23;;;;;;;12.63;10.08;;;;;;;18.13;100.00;100609.04;1691573;83;21528;-91
2022/08/20 01:31:50;;;;;;;10.05;9.03;;;;;;;18.15;100.00;100604.91;1655480;84;21105;-94
2022/08/20 01:34:21;;;;;;;10.32;9.25;;;;;;;18.18;100.00;100610.37;1689432;83;21199;-92
2022/08/20 01:36:54;;;;;;;11.10;9.65;;;;;;;18.20;100.00;100617.12;1683737;83;21089;-91
2022/08/20 01:39:28;;;;;;;11.40;9.55;;;;;;;18.24;100.00;100617.09;1682695;83;20959;-91
2022/08/20 01:42:07;;;;;;;9.80;8.85;;;;;;;18.29;100.00;100617.92;1684381;83;21080;-92
2022/08/20 01:44:45;;;;;;;10.23;9.05;;;;;;;18.34;100.00;100614.80;1681622;83;21561;-91
2022/08/20 01:47:27;;;;;;;13.60;9.63;;;;;;;18.34;100.00;100613.00;1690513;83;21140;-91
2022/08/20 01:49:58;;;;;;;15.10;10.20;;;;;;;18.37;100.00;100607.88;1685407;83;21086;-91
2022/08/20 01:52:39;;;;;;;10.85;9.75;;;;;;;18.35;100.00;100611.17;1680946;83;26746;-91
2022/08/20 01:55:09;;;;;;;10.82;9.45;;;;;;;18.34;100.00;100609.52;1682226;83;21074;-92
2022/08/20 01:57:39;;;;;;;13.10;10.03;;;;;;;18.33;100.00;100611.34;1689164;83;21089;-92
2022/08/20 02:00:12;;;;;;;15.35;10.23;;;;;;;18.35;100.00;100613.80;1689835;83;21861;-93
2022/08/20 02:02:39;;;;;;;11.05;9.95;;;;;;;18.36;100.00;100614.95;1686332;83;21033;-93
2022/08/20 02:05:07;;;;;;;15.90;9.75;;;;;;;18.37;100.00;100615.79;1685741;83;21124;-92
2022/08/20 02:07:37;;;;;;;11.33;9.80;;;;;;;18.38;100.00;100613.48;1692306;83;21053;-93
2022/08/20 02:10:10;;;;;;;15.25;9.18;;;;;;;18.36;100.00;100614.95;1687464;83;21062;-92
2022/08/20 02:12:38;;;;;;;14.65;9.60;;;;;;;18.36;100.00;100626.81;1679852;83;21102;-92
2022/08/20 02:15:09;;;;;;;13.80;9.53;;;;;;;18.35;100.00;100623.84;1680110;83;21058;-91
2022/08/20 02:17:38;;;;;;;13.45;9.03;;;;;;;18.32;100.00;100629.47;1675544;83;21050;-93
2022/08/20 02:20:11;;;;;;;14.35;9.28;;;;;;;18.31;100.00;100629.64;1676945;83;21449;-91
2022/08/20 02:22:47;;;;;;;13.78;9.53;;;;;;;18.32;100.00;100625.98;1671706;83;21074;-91
2022/08/20 02:25:21;;;;;;;13.15;9.98;;;;;;;18.33;100.00;100619.25;1672874;83;21186;-91
2022/08/20 02:27:51;;;;;;;17.55;10.30;;;;;;;18.35;100.00;100626.48;1674017;83;21058;-91
2022/08/20 02:30:24;;;;;;;15.03;9.70;;;;;;;18.35;100.00;100628.30;1678749;83;21050;-92
2022/08/20 02:32:51;;;;;;;19.17;10.00;;;;;;;18.34;100.00;100638.52;1674456;83;21027;-91
2022/08/20 02:35:19;;;;;;;20.52;9.98;;;;;;;18.28;100.00;100638.20;1678124;83;21122;-93
2022/08/20 02:37:47;;;;;;;23.55;10.80;;;;;;;18.22;100.00;100630.96;1677429;83;21214;-92
2022/08/20 02:40:20;;;;;;;18.87;9.75;;;;;;;18.16;100.00;100632.91;1680117;83;21565;-91
2022/08/20 02:42:47;;;;;;;17.07;8.68;;;;;;;18.12;100.00;100643.47;1678971;83;21094;-92
2022/08/20 02:45:19;;;;;;;15.83;8.88;;;;;;;18.10;100.00;100646.75;1676690;83;21030;-91
2022/08/20 02:47:46;;;;;;;15.90;8.75;;;;;;;18.11;100.00;100647.09;1680689;83;21022;-91
2022/08/20 02:50:19;;;;;;;16.97;9.23;;;;;;;18.12;100.00;100650.86;1672312;83;21234;-92
2022/08/20 02:52:49;;;;;;;20.72;8.70;;;;;;;18.12;100.00;100656.14;1670307;83;20972;-91
2022/08/20 02:55:20;;;;;;;19.32;9.40;;;;;;;18.14;100.00;100667.85;1679254;83;21003;-92
2022/08/20 02:57:53;;;;;;;16.70;8.93;;;;;;;18.13;100.00;100668.83;1677124;83;21038;-91
2022/08/20 03:00:22;;;;;;;15.48;8.05;;;;;;;18.12;100.00;100667.99;1664786;83;21556;-93
2022/08/20 03:02:53;;;;;;;14.43;8.18;;;;;;;18.13;100.00;100666.20;1676378;83;21059;-92
2022/08/20 03:05:20;;;;;;;20.17;8.88;;;;;;;18.18;100.00;100669.66;1671640;83;21062;-89
2022/08/20 03:07:52;;;;;;;17.52;8.33;;;;;;;18.21;100.00;100667.52;1676373;83;21525;-89
2022/08/20 03:10:30;;;;;;;13.25;9.00;;;;;;;18.22;100.00;100664.37;1668691;83;21505;-89
2022/08/20 03:13:01;;;;;;;23.00;9.15;;;;;;;18.19;100.00;100660.74;1674216;83;21065;-89
2022/08/20 03:15:31;;;;;;;18.65;9.08;;;;;;;18.19;100.00;100667.33;1676971;84;21159;-89
2022/08/20 03:18:00;;;;;;;25.43;9.43;;;;;;;18.17;100.00;100659.59;1674958;84;21026;-89
2022/08/20 03:20:29;;;;;;;25.57;9.63;;;;;;;18.15;100.00;100654.98;1678062;84;21505;-86
2022/08/20 03:23:00;;;;;;;22.25;9.15;;;;;;;18.12;100.00;100662.72;1675288;83;21059;-86
2022/08/20 03:25:30;;;;;;;18.00;9.00;;;;;;;18.10;100.00;100663.41;1671161;83;21012;-86
2022/08/20 03:27:57;;;;;;;21.10;8.73;;;;;;;18.08;100.00;100668.48;1674603;83;21130;-86
2022/08/20 03:30:29;;;;;;;25.35;9.18;;;;;;;18.08;100.00;100667.16;1683607;83;21027;-88
2022/08/20 03:32:57;;;;;;;27.90;8.28;;;;;;;18.10;100.00;100673.10;1682193;83;21090;-88
2022/08/20 03:35:29;;;;;;;25.40;9.08;;;;;;;18.10;100.00;100673.10;1667811;83;21027;-87
2022/08/20 03:37:57;;;;;;;21.85;7.87;;;;;;;18.10;100.00;100673.10;1674996;83;21042;-87
2022/08/20 03:40:30;;;;;;;23.27;8.60;;;;;;;18.11;100.00;100676.07;1678417;83;21147;-87
2022/08/20 03:43:01;;;;;;;22.82;8.83;;;;;;;18.12;100.00;100671.13;1679758;83;21022;-86
2022/08/20 03:45:31;;;;;;;20.12;8.95;;;;;;;18.15;100.00;100669.98;1678996;83;21019;-87
2022/08/20 03:48:00;;;;;;;24.82;9.70;;;;;;;18.15;100.00;100662.88;1676021;83;21070;-88
2022/08/20 03:50:30;;;;;;;23.52;8.95;;;;;;;18.18;100.00;100667.84;1676077;83;21023;-87
2022/08/20 03:52:58;;;;;;;18.35;8.98;;;;;;;18.18;100.00;100661.25;1680127;83;21114;-87
2022/08/20 03:55:31;;;;;;;17.48;8.90;;;;;;;18.19;100.00;100669.48;1678116;83;20999;-88
2022/08/20 03:58:06;;;;;;;18.02;8.60;;;;;;;18.21;100.00;100664.89;1678179;83;20975;-87
2022/08/20 04:00:45;;;;;;;20.08;8.55;;;;;;;18.24;100.00;100666.36;1669495;83;21133;-87
2022/08/20 04:03:12;;;;;;;22.58;9.53;;;;;;;18.27;100.00;100665.54;1683919;83;21118;-87
2022/08/20 04:05:44;;;;;;;22.22;10.32;;;;;;;18.30;100.00;100668.33;1673853;83;21577;-87
2022/08/20 04:08:17;;;;;;;31.30;10.57;;;;;;;18.36;100.00;100672.13;1671557;84;21083;-87
2022/08/20 04:10:47;;;;;;;24.43;10.70;;;;;;;18.39;100.00;100667.34;1679715;83;21054;-88
2022/08/20 04:13:18;;;;;;;25.48;10.03;;;;;;;18.46;100.00;100667.52;1679977;83;21063;-87
2022/08/20 04:15:48;;;;;;;29.63;9.75;;;;;;;18.53;100.00;100667.18;1673855;84;21131;-87
2022/08/20 04:18:21;;;;;;;21.73;10.08;;;;;;;18.59;100.00;100673.58;1668525;84;39377;-87
2022/08/20 04:20:51;;;;;;;28.15;10.65;;;;;;;18.67;100.00;100678.03;1672145;84;21082;-87
2022/08/20 04:23:20;;;;;;;29.15;10.08;;;;;;;18.73;100.00;100678.20;1683236;83;21057;-88
2022/08/20 04:25:48;;;;;;;25.57;10.00;;;;;;;18.80;100.00;100678.84;1678975;83;21117;-88
2022/08/20 04:28:26;;;;;;;33.18;10.82;;;;;;;18.86;100.00;100677.68;1674183;83;21066;-87
2022/08/20 04:30:57;;;;;;;33.42;9.88;;;;;;;18.91;100.00;100681.94;1670641;84;21169;-87
2022/08/20 04:33:29;;;;;;;36.15;10.43;;;;;;;18.99;100.00;100678.48;1674201;84;21325;-88
2022/08/20 04:35:59;;;;;;;;;;;;;;;19.04;100.00;100677.49;1673098;84;21564;-88
2022/08/20 04:38:30;;;;;;;28.38;8.85;;;;;;;19.08;100.00;100675.34;1664038;84;20137;-87
2022/08/20 04:41:00;;;;;;;31.90;8.90;;;;;;;19.11;100.00;100675.48;1663923;84;21018;-87
2022/08/20 04:43:36;;;;;;;29.37;8.90;;;;;;;19.14;100.00;100677.28;1669197;84;21960;-87
2022/08/20 04:46:10;;;;;;;38.95;9.08;;;;;;;19.17;100.00;100677.44;1670416;83;21109;-87
2022/08/20 04:48:42;;;;;;;37.83;8.90;;;;;;;19.20;100.00;100682.39;1670941;83;21102;-86
2022/08/20 04:51:14;;;;;;;41.35;9.53;;;;;;;19.23;100.00;100676.75;1672803;83;21616;-86
2022/08/20 04:53:44;;;;;;;33.42;8.23;;;;;;;19.25;100.00;100679.23;1675654;83;21082;-86
2022/08/20 04:56:11;;;;;;;34.20;8.93;;;;;;;19.26;100.00;100683.53;1660743;83;21248;-87
2022/08/20 04:58:42;;;;;;;27.80;7.97;;;;;;;19.28;100.00;100683.67;1670098;83;21063;-87
2022/08/20 05:01:13;;;;;;;40.08;8.98;;;;;;;19.31;100.00;100681.19;1671140;83;21058;-88
2022/08/20 05:03:42;;;;;;;34.50;9.05;;;;;;;19.34;100.00;100681.66;1674145;83;21134;-88
2022/08/20 05:06:14;;;;;;;41.40;9.75;;;;;;;19.37;100.00;100677.86;1676957;83;21023;-85
2022/08/20 05:08:43;;;;;;;36.93;8.58;;;;;;;19.37;100.00;100673.41;1673806;83;21172;-90
2022/08/20 05:11:11;;;;;;;52.83;9.25;;;;;;;19.39;100.00;100675.88;1674311;83;21164;-87
2022/08/20 05:13:39;;;;;;;35.25;9.63;;;;;;;19.43;100.00;100676.35;1675773;83;21105;-87
2022/08/20 05:16:08;;;;;;;43.75;8.80;;;;;;;19.48;100.00;100680.13;1677730;83;21014;-87
2022/08/20 05:18:36;;;;;;;39.85;8.68;;;;;;;19.49;100.00;100671.70;1676694;83;21027;-86
2022/08/20 05:21:05;;;;;;;46.00;10.13;;;;;;;19.47;100.00;100670.55;1675357;83;21121;-85
2022/08/20 05:23:42;;;;;;;47.58;9.50;;;;;;;19.46;100.00;100671.55;1676969;83;21130;-88
2022/08/20 05:26:11;;;;;;;51.08;9.95;;;;;;;19.46;100.00;100670.23;1673088;83;22211;-86
2022/08/20 05:28:44;;;;;;;41.28;9.73;;;;;;;19.46;100.00;100667.59;1676077;83;21063;-86
2022/08/20 05:31:11;;;;;;;24.87;7.70;;;;;;;19.51;100.00;100672.35;1676481;83;21097;-87
2022/08/20 05:33:39;;;;;;;42.17;9.95;;;;;;;19.57;100.00;100670.84;1675230;83;21229;-86
2022/08/20 05:36:07;;;;;;;42.05;9.63;;;;;;;19.66;100.00;100671.13;1673150;83;21446;-87
2022/08/20 05:38:36;;;;;;;39.25;10.48;;;;;;;19.71;100.00;100671.42;1672754;83;21054;-89
2022/08/20 05:41:06;;;;;;;34.90;9.13;;;;;;;19.77;100.00;100661.98;1669840;83;21075;-87
2022/08/20 05:43:34;;;;;;;45.95;10.00;;;;;;;19.82;100.00;100666.23;1671729;83;21038;-87
2022/08/20 05:46:01;;;;;;;36.13;9.40;;;;;;;19.89;100.00;100666.39;1677025;83;21084;-88
2022/08/20 05:48:29;;;;;;;43.30;9.98;;;;;;;19.94;100.00;100660.07;1672844;83;21031;-87
2022/08/20 05:50:58;;;;;;;39.75;8.53;;;;;;;20.04;100.00;100659.34;1670979;83;21058;-87
2022/08/20 05:53:27;;;;;;;40.40;10.35;;;;;;;20.10;100.00;100661.27;1681923;83;21061;-87
2022/08/20 05:55:54;;;;;;;48.38;10.98;;;;;;;20.15;100.00;100660.75;1666590;83;21584;-88
2022/08/20 05:58:29;;;;;;;38.90;9.95;;;;;;;20.22;100.00;100656.39;1673810;83;21164;-87
2022/08/20 06:00:58;;;;;;;51.88;10.25;;;;;;;20.35;100.00;100654.98;1674308;83;21019;-86
2022/08/20 06:06:11;;;;;;;40.58;8.98;;;;;;;20.68;100.00;100644.90;1672766;83;21090;-87
2022/08/20 06:08:40;;;;;;;36.60;9.38;;;;;;;20.84;100.00;100641.27;1679915;83;21141;-87
2022/08/20 06:11:08;;;;;;;28.98;9.05;;;;;;;20.99;100.00;100639.95;1677292;83;21119;-88
2022/08/20 06:13:36;;;;;;;40.15;10.10;;;;;;;21.10;100.00;100642.15;1679019;83;21011;-87
2022/08/20 06:16:06;;;;;;;33.83;10.23;;;;;;;21.23;100.00;100639.33;1669504;84;21556;-87
2022/08/20 06:18:34;;;;;;;32.17;9.10;;;;;;;21.35;100.00;100633.86;1676771;84;21079;-87
2022/08/20 06:21:05;;;;;;;35.90;9.83;;;;;;;21.46;100.00;100637.05;1677432;84;21070;-88
2022/08/20 06:23:34;;;;;;;44.90;10.82;;;;;;;21.57;100.00;100636.08;1675946;84;21152;-88
2022/08/20 06:26:06;;;;;;;43.60;10.10;;;;;;;21.69;100.00;100641.70;1672383;84;21054;-88
2022/08/20 06:28:35;;;;;;;39.15;10.35;;;;;;;21.73;100.00;100645.63;1669351;84;21032;-88
2022/08/20 06:31:04;;;;;;;38.33;10.18;;;;;;;21.78;100.00;100641.59;1679884;84;21086;-91
2022/08/20 06:33:32;;;;;;;42.78;10.68;;;;;;;21.82;100.00;100645.00;1680782;84;21077;-89
2022/08/20 06:36:01;;;;;;;37.98;10.70;;;;;;;21.90;100.00;100642.73;1669553;84;21142;-88
2022/08/20 06:38:31;;;;;;;43.13;10.50;;;;;;;22.01;100.00;100643.54;1668741;84;20999;-87
2022/08/20 06:40:58;;;;;;;37.85;11.12;;;;;;;22.17;100.00;100637.16;1671081;84;21031;-86
2022/08/20 06:43:26;;;;;;;35.63;10.90;;;;;;;22.33;100.00;100640.02;1681531;84;21059;-88
2022/08/20 06:45:56;;;;;;;46.00;11.18;;;;;;;22.51;100.00;100637.43;1665347;84;21149;-88
2022/08/20 06:48:22;;;;;;;39.80;10.85;;;;;;;22.67;100.00;100638.98;1667364;84;21105;-86
2022/08/20 06:50:50;;;;;;;44.05;10.08;;;;;;;22.74;100.00;100637.18;1668293;84;21071;-87
2022/08/20 06:53:19;;;;;;;45.50;10.70;;;;;;;22.84;100.00;100632.84;1656985;84;21054;-89
2022/08/20 06:55:51;;;;;;;35.98;9.68;;;;;;;22.91;100.00;100636.34;1673286;84;21501;-87
2022/08/20 06:58:19;;;;;;;40.05;10.60;;;;;;;22.96;100.00;100636.56;1665279;84;21027;-87
2022/08/20 07:00:48;;;;;;;28.70;9.30;;;;;;;23.02;100.00;100630.17;1659494;84;21765;-87
2022/08/20 07:03:19;;;;;;;;;;;;;;;23.08;100.00;100632.03;1680989;84;21066;-88
2022/08/20 07:05:47;;;;;;;35.78;9.70;;;;;;;23.12;100.00;100631.92;1670548;84;20188;-88
2022/08/20 07:08:17;;;;;;;41.85;10.85;;;;;;;23.16;100.00;100635.84;1671759;84;22428;-87
2022/08/20 07:10:50;;;;;;;39.40;10.35;;;;;;;23.19;100.00;100635.98;1660801;84;21892;-89
2022/08/20 07:13:20;;;;;;;38.23;11.65;;;;;;;23.18;100.00;100642.30;1668464;84;21140;-89
2022/08/20 07:15:50;;;;;;;43.68;10.75;;;;;;;23.15;100.00;100642.17;1668465;84;21031;-88
2022/08/20 07:18:17;;;;;;;49.90;11.25;;;;;;;23.14;100.00;100647.16;1658719;84;21071;-90
2022/08/20 07:20:44;;;;;;;47.53;11.65;;;;;;;23.14;100.00;100648.00;1668293;84;21539;-90
2022/08/20 07:23:12;;;;;;;43.63;11.20;;;;;;;23.16;100.00;100647.27;1664547;84;21011;-90
2022/08/20 07:25:43;;;;;;;54.15;11.28;;;;;;;23.19;100.00;100646.11;1665334;84;21135;-91
2022/08/20 07:28:19;;;;;;;34.98;11.25;;;;;;;23.26;100.00;100642.97;1670623;84;21576;-91
2022/08/20 07:33:38;;;;;;;40.38;11.28;;;;;;;23.47;100.00;100633.21;1679768;84;21566;-91
2022/08/20 07:36:10;;;;;;;41.85;10.40;;;;;;;23.58;100.00;100631.31;1675702;84;21121;-91
2022/08/20 07:38:38;;;;;;;29.18;9.63;;;;;;;23.70;100.00;100636.85;1647278;85;21858;-91
2022/08/20 07:41:12;;;;;;;39.23;11.00;;;;;;;23.80;100.00;100641.77;1671122;84;21095;-92
2022/08/20 07:43:44;;;;;;;35.88;11.35;;;;;;;23.89;100.00;100639.22;1674012;84;21004;-92
2022/08/20 07:46:18;;;;;;;40.08;11.10;;;;;;;23.99;100.00;100638.04;1671912;84;21102;-92
2022/08/20 07:48:48;;;;;;;33.67;11.00;;;;;;;24.09;100.00;100636.61;1668887;84;21077;-93
2022/08/20 07:51:20;;;;;;;40.15;11.85;;;;;;;24.33;100.00;100641.48;1663072;84;21103;-92
2022/08/20 07:53:51;;;;;;;37.35;11.30;;;;;;;24.56;100.00;100641.87;1662584;84;21588;-93
2022/08/20 07:56:23;;;;;;;33.50;10.53;;;;;;;24.80;100.00;100636.93;1665972;84;21046;-92
2022/08/20 07:58:54;;;;;;;28.32;10.35;;;;;;;25.01;100.00;100637.70;1663837;84;21043;-92
2022/08/20 08:01:28;;;;;;;32.20;10.93;;;;;;;25.10;100.00;100634.27;1665485;84;21145;-93
2022/08/20 08:03:59;;;;;;;27.55;10.60;;;;;;;25.23;100.00;100640.06;1664595;84;21911;-92
2022/08/20 08:06:31;;;;;;;;;;;;;;;25.39;100.00;100636.13;1672504;84;21058;-93
2022/08/20 08:09:07;;;;;;;31.87;9.78;;;;;;;25.55;100.00;100636.13;1668381;84;20168;-94
2022/08/20 08:11:37;;;;;;;22.37;9.23;;;;;;;25.65;100.00;100633.81;1660212;84;21106;-93
2022/08/20 08:14:09;;;;;;;27.62;9.58;;;;;;;25.62;100.00;100631.07;1664350;84;21047;-93
2022/08/20 08:16:38;;;;;;;27.15;9.13;;;;;;;25.59;100.00;100629.35;1665916;83;21571;-93
2022/08/20 08:19:11;;;;;;;27.62;9.10;;;;;;;25.55;100.00;100630.30;1677250;83;20995;-93
2022/08/20 08:21:38;;;;;;;28.07;9.85;;;;;;;25.54;100.00;100623.83;1668785;83;21027;-92
2022/08/20 08:24:07;;;;;;;28.65;9.25;;;;;;;25.55;100.00;100625.47;1659918;83;21018;-92
2022/08/20 08:26:35;;;;;;;23.77;9.08;;;;;;;25.60;100.00;100624.33;1670027;83;21023;-93
2022/08/20 08:29:06;;;;;;;26.55;10.20;;;;;;;25.66;100.00;100628.79;1673769;83;21925;-92
2022/08/20 08:31:34;;;;;;;24.32;9.95;;;;;;;25.85;100.00;100620.84;1674985;83;28308;-93
2022/08/20 08:34:01;;;;;;;25.35;9.33;;;;;;;25.85;100.00;100620.84;1682773;83;21579;-93
2022/08/20 08:36:34;;;;;;;27.15;10.38;;;;;;;25.97;100.00;100624.45;1674558;83;21061;-94
2022/08/20 08:39:05;;;;;;;28.52;10.50;;;;;;;26.02;100.00;100631.28;1679924;83;21126;-94
2022/08/20 08:41:38;;;;;;;28.77;9.33;;;;;;;26.06;100.00;100621.82;1674261;83;21090;-94
2022/08/20 08:44:20;;;;;;;26.62;10.45;;;;;;;26.07;100.00;100626.13;1680544;83;21054;-92
2022/08/20 08:46:48;;;;;;;28.17;10.60;;;;;;;26.17;100.00;100632.33;1678501;83;21108;-94
2022/08/20 08:49:23;;;;;;;27.32;9.65;;;;;;;26.15;100.00;100623.72;1672557;83;21070;-91
2022/08/20 08:52:03;;;;;;;37.35;10.45;;;;;;;26.14;100.00;100628.75;1673704;83;21046;-93
2022/08/20 08:54:33;;;;;;;19.90;9.00;;;;;;;26.13;100.00;100633.78;1671055;83;21224;-93
2022/08/20 08:57:01;;;;;;;33.18;9.63;;;;;;;26.04;100.00;100633.22;1672219;83;21384;-92
2022/08/20 08:59:30;;;;;;;31.97;9.78;;;;;;;26.03;100.00;100630.78;1667526;83;21093;-93
2022/08/20 09:02:01;;;;;;;29.30;9.33;;;;;;;25.99;100.00;100621.06;1684713;83;20983;-93
2022/08/20 09:04:38;;;;;;;26.10;9.28;;;;;;;26.04;100.00;100610.55;1681911;83;21371;-92
2022/08/20 09:07:10;;;;;;;32.63;9.85;;;;;;;26.13;100.00;100611.94;1667327;83;21309;-93
2022/08/20 09:09:41;;;;;;;30.17;9.58;;;;;;;26.26;100.00;100615.50;1680068;83;21098;-91
2022/08/20 09:12:18;;;;;;;36.23;10.53;;;;;;;26.33;100.00;100616.25;1684290;83;21064;-91
2022/08/20 09:14:48;;;;;;;36.85;9.68;;;;;;;26.49;100.00;100623.39;1706678;82;21010;-91
2022/08/20 09:17:21;;;;;;;34.40;9.55;;;;;;;26.61;100.00;100612.29;1667401;84;21529;-92
2022/08/20 09:19:51;;;;;;;34.35;10.80;;;;;;;26.64;100.00;100601.68;1672838;83;21868;-92
2022/08/20 09:22:21;;;;;;;30.48;9.63;;;;;;;26.72;100.00;100606.72;1678566;83;21054;-93
2022/08/20 09:24:51;;;;;;;35.52;10.68;;;;;;;26.80;100.00;100597.64;1678359;83;21510;-93
2022/08/20 09:27:20;;;;;;;31.52;9.58;;;;;;;26.88;100.00;100600.00;1672696;83;21064;-94
2022/08/20 09:29:52;;;;;;;33.13;11.18;;;;;;;26.98;100.00;100597.59;1676535;83;21027;-93
2022/08/20 09:32:24;;;;;;;27.32;9.78;;;;;;;27.19;100.00;100595.49;1694332;82;21308;-92
2022/08/20 09:34:55;;;;;;;36.38;10.08;;;;;;;27.50;100.00;100594.98;1699086;83;21129;-93
2022/08/20 09:37:25;;;;;;;31.07;9.80;;;;;;;27.73;100.00;100591.52;1677862;83;21541;-93
2022/08/20 09:39:56;;;;;;;49.98;10.48;;;;;;;27.92;100.00;100592.27;1676512;83;21113;-92
2022/08/20 09:42:34;;;;;;;34.78;10.50;;;;;;;28.07;100.00;100598.51;1682379;83;21089;-91
2022/08/20 09:45:05;;;;;;;39.78;10.98;;;;;;;28.13;100.00;100592.75;1684189;83;21131;-92
2022/08/20 09:47:34;;;;;;;34.05;10.18;;;;;;;28.09;100.00;100600.94;1682538;83;21924;-92
2022/08/20 09:50:08;;;;;;;41.20;10.50;;;;;;;28.00;100.00;100595.91;1679085;83;21572;-92
2022/08/20 09:52:41;;;;;;;31.70;10.58;;;;;;;27.97;100.00;100598.23;1669497;83;21043;-92
2022/08/20 09:55:27;;;;;;;30.50;10.40;;;;;;;27.94;100.00;100599.52;1677979;83;21106;-93
2022/08/20 09:57:54;;;;;;;31.97;9.95;;;;;;;27.99;100.00;100596.97;1672776;83;21193;-93
2022/08/20 10:00:22;;;;;;;35.03;9.75;;;;;;;28.20;100.00;100592.11;1670628;83;22024;-92
2022/08/20 10:02:50;;;;;;;37.28;10.15;;;;;;;28.41;100.00;100591.20;1681711;83;21098;-92
2022/08/20 10:05:17;;;;;;;36.45;10.18;;;;;;;28.63;100.00;100593.57;1678962;83;21082;-93
2022/08/20 10:07:45;;;;;;;33.25;9.85;;;;;;;28.80;100.00;100588.84;1680117;83;21058;-93
2022/08/20 10:10:14;;;;;;;28.45;9.30;;;;;;;28.96;100.00;100589.40;1674476;83;21086;-93
2022/08/20 10:12:42;;;;;;;26.52;8.85;;;;;;;29.08;100.00;100582.69;1680918;83;21019;-93
2022/08/20 10:15:10;;;;;;;23.65;9.28;;;;;;;29.21;100.00;100582.09;1685060;83;21054;-93
2022/08/20 10:17:41;;;;;;;30.65;9.68;;;;;;;29.34;100.00;100574.30;1667943;84;21305;-92
2022/08/20 10:20:13;;;;;;;27.58;8.80;;;;;;;29.44;100.00;100575.83;1659257;84;26937;-93
2022/08/20 10:22:44;;;;;;;19.98;8.58;;;;;;;29.52;100.00;100576.77;1665216;84;21150;-92
2022/08/20 10:25:15;;;;;;;35.88;9.38;;;;;;;29.64;100.00;100573.17;1684378;83;21066;-92
2022/08/20 10:27:46;;;;;;;32.33;9.60;;;;;;;29.77;100.00;100578.20;1670796;84;21532;-92
2022/08/20 10:30:15;;;;;;;33.35;9.85;;;;;;;29.88;100.00;100578.66;1660179;84;21073;-92
2022/08/20 10:32:42;;;;;;;29.10;8.95;;;;;;;30.00;100.00;100580.48;1684027;83;21083;-92
2022/08/20 10:35:09;;;;;;;34.90;9.60;;;;;;;30.13;100.00;100576.09;1697419;83;21861;-93
2022/08/20 10:37:36;;;;;;;26.57;7.53;;;;;;;30.31;100.00;100578.21;1673218;84;21018;-93
2022/08/20 10:40:06;;;;;;;24.40;8.35;;;;;;;30.45;100.00;100577.30;1663618;84;21110;-93
2022/08/20 10:42:35;;;;;;;31.90;8.53;;;;;;;30.52;100.00;100580.12;1661074;84;21042;-94
2022/08/20 10:45:02;;;;;;;29.23;8.58;;;;;;;30.58;100.00;100576.97;1661322;83;21517;-93
2022/08/20 10:47:31;;;;;;;22.80;7.28;;;;;;;30.60;94.09;100575.36;1674804;84;21154;-94
2022/08/20 10:50:07;;;;;;;28.80;8.48;;;;;;;30.52;100.00;100566.69;1671435;84;21015;-93
2022/08/20 10:52:36;;;;;;;25.48;7.58;;;;;;;30.55;99.62;100569.40;1673260;84;21727;-92
2022/08/20 10:55:06;;;;;;;18.35;7.33;;;;;;;30.57;100.00;100565.14;1681547;83;21521;-93
2022/08/20 10:57:33;;;;;;;28.57;7.97;;;;;;;30.60;100.00;100561.94;1670376;84;21023;-93
2022/08/20 11:00:08;;;;;;;31.12;8.68;;;;;;;30.69;99.80;100560.44;1667800;84;21255;-96
2022/08/20 11:02:38;;;;;;;40.00;8.23;;;;;;;30.68;94.12;100546.20;1659436;84;21696;-92
2022/08/20 11:05:08;;;;;;;37.98;8.65;;;;;;;30.69;100.00;100546.45;1664877;83;21169;-95
2022/08/20 11:07:43;;;;;;;28.70;8.28;;;;;;;30.73;91.34;100546.76;1659941;83;21067;-94
2022/08/20 11:10:15;;;;;;;61.40;25.23;;;;;;;30.73;91.88;100536.01;1666943;83;21066;-96
2022/08/20 11:12:44;;;;;;;33.10;8.70;;;;;;;30.79;100.00;100536.37;1663582;83;21223;-95
2022/08/20 11:15:14;;;;;;;30.57;9.33;;;;;;;30.86;98.02;100533.46;1677045;83;21066;-96
2022/08/20 11:17:44;;;;;;;28.38;10.15;;;;;;;30.91;94.20;100529.50;1679006;83;21012;-95
2022/08/20 11:20:15;;;;;;;27.50;12.07;;;;;;;30.98;100.00;100525.24;1674609;84;21034;-94
2022/08/20 11:22:42;;;;;;;36.08;9.48;;;;;;;31.04;98.60;100528.28;1672060;83;21054;-95
2022/08/20 11:25:13;;;;;;;32.98;9.13;;;;;;;31.11;92.71;100526.74;1686138;83;21148;-96
2022/08/20 11:27:51;;;;;;;26.80;7.87;;;;;;;31.15;90.22;100533.24;1682493;83;21082;-95
2022/08/20 11:30:24;;;;;;;27.62;8.00;;;;;;;31.14;82.56;100531.07;1678446;83;21014;-96
2022/08/20 11:32:54;;;;;;;21.60;8.25;;;;;;;31.08;79.82;100529.38;1647825;84;21050;-94